createdAt,value
2017-07-24T00:00:25.415Z,5.53
2017-07-24T00:02:52.888Z,5.87
2017-07-24T00:05:20.360Z,10.63
2017-07-24T00:07:47.835Z,9.10
2017-07-24T00:10:15.293Z,3.90
2017-07-24T00:12:42.756Z,11.33
2017-07-24T00:15:10.215Z,9.70
2017-07-24T00:17:37.691Z,3.77
2017-07-24T00:20:05.931Z,7.37
2017-07-24T00:22:33.413Z,4.70
2017-07-24T00:25:01.648Z,3.60
2017-07-24T00:27:29.125Z,6.73
2017-07-24T00:29:56.584Z,8.77
2017-07-24T00:32:24.047Z,9.40
2017-07-24T00:34:51.511Z,6.97
2017-07-24T00:37:18.990Z,7.63
2017-07-24T00:39:46.457Z,12.87
2017-07-24T00:42:13.914Z,7.60
2017-07-24T00:44:41.399Z,8.40
2017-07-24T00:47:08.877Z,10.03
2017-07-24T00:49:36.351Z,6.47
2017-07-24T00:52:03.837Z,8.90
2017-07-24T00:54:31.323Z,7.07
2017-07-24T00:56:58.787Z,6.33
2017-07-24T00:59:26.264Z,8.60
2017-07-24T01:01:53.754Z,8.77
2017-07-24T01:04:21.224Z,6.70
2017-07-24T01:06:48.701Z,7.00
2017-07-24T01:09:16.158Z,6.70
2017-07-24T01:11:43.635Z,7.33
2017-07-24T01:14:11.088Z,5.97
2017-07-24T01:16:38.571Z,5.23
2017-07-24T01:19:06.029Z,6.70
2017-07-24T01:21:33.478Z,8.70
2017-07-24T01:24:00.947Z,8.30
2017-07-24T01:26:29.189Z,9.20
2017-07-24T01:28:56.660Z,10.30
2017-07-24T01:31:24.126Z,10.80
2017-07-24T01:33:51.582Z,9.73
2017-07-24T01:36:19.040Z,11.33
2017-07-24T01:38:46.502Z,8.43
2017-07-24T01:41:14.737Z,13.03
2017-07-24T01:43:42.204Z,16.47
2017-07-24T01:46:09.662Z,9.80
2017-07-24T01:48:37.126Z,11.87
2017-07-24T01:51:04.587Z,17.03
2017-07-24T01:53:32.111Z,10.87
2017-07-24T01:55:59.584Z,17.53
2017-07-24T01:58:27.030Z,10.50
2017-07-24T02:00:54.498Z,11.40
2017-07-24T02:03:21.968Z,12.50
2017-07-24T02:05:49.424Z,11.90
2017-07-24T02:08:16.896Z,10.97
2017-07-24T02:10:44.356Z,13.67
2017-07-24T02:13:12.589Z,16.93
2017-07-24T02:15:40.067Z,15.80
2017-07-24T02:18:07.523Z,14.87
2017-07-24T02:20:35.003Z,14.00
2017-07-24T02:23:03.247Z,12.30
2017-07-24T02:25:30.712Z,13.67
2017-07-24T02:27:58.173Z,16.30
2017-07-24T02:30:25.652Z,11.80
2017-07-24T02:32:53.878Z,8.70
2017-07-24T02:35:21.346Z,11.67
2017-07-24T02:37:48.812Z,9.03
2017-07-24T02:40:16.274Z,7.10
2017-07-24T02:42:43.727Z,11.03
2017-07-24T02:45:11.217Z,7.67
2017-07-24T02:47:39.442Z,6.27
2017-07-24T02:50:06.958Z,7.47
2017-07-24T02:52:34.431Z,10.20
2017-07-24T02:55:01.911Z,5.47
2017-07-24T02:57:29.383Z,9.27
2017-07-24T02:59:56.852Z,6.87
2017-07-24T03:02:29.351Z,4.73
2017-07-24T03:04:56.948Z,4.47
2017-07-24T03:07:24.408Z,7.33
2017-07-24T03:09:51.887Z,8.80
2017-07-24T03:12:19.361Z,6.03
2017-07-24T03:14:46.891Z,6.53
2017-07-24T03:17:14.344Z,6.13
2017-07-24T03:19:41.832Z,5.17
2017-07-24T03:22:09.287Z,8.07
2017-07-24T03:24:36.767Z,6.57
2017-07-24T03:27:05.014Z,7.23
2017-07-24T03:29:32.466Z,5.93
2017-07-24T03:31:59.928Z,5.53
2017-07-24T03:34:27.396Z,6.50
2017-07-24T03:36:54.851Z,5.63
2017-07-24T03:39:22.311Z,7.27
2017-07-24T03:41:50.545Z,7.10
2017-07-24T03:44:18.039Z,10.87
2017-07-24T03:46:45.499Z,10.87
2017-07-24T03:49:12.971Z,8.10
2017-07-24T03:51:41.187Z,10.23
2017-07-24T03:54:08.656Z,10.17
2017-07-24T03:56:36.128Z,6.83
2017-07-24T03:59:03.587Z,11.43
2017-07-24T04:01:31.054Z,12.60
2017-07-24T04:03:59.297Z,12.87
2017-07-24T04:06:26.800Z,10.40
2017-07-24T04:08:54.251Z,9.20
2017-07-24T04:11:22.501Z,10.43
2017-07-24T04:13:49.959Z,12.23
2017-07-24T04:16:17.426Z,9.87
2017-07-24T04:18:44.931Z,16.80
2017-07-24T04:21:12.396Z,12.03
2017-07-24T04:23:39.851Z,17.13
2017-07-24T04:26:07.328Z,13.03
2017-07-24T04:28:34.792Z,21.07
2017-07-24T04:31:02.255Z,11.07
2017-07-24T04:33:29.728Z,16.80
2017-07-24T04:35:57.191Z,14.70
2017-07-24T04:38:25.414Z,17.03
2017-07-24T04:40:52.909Z,14.73
2017-07-24T04:43:20.397Z,12.57
2017-07-24T04:45:48.644Z,12.80
2017-07-24T04:48:16.119Z,11.40
2017-07-24T04:50:44.351Z,15.20
2017-07-24T04:53:11.836Z,20.20
2017-07-24T04:55:39.319Z,16.10
2017-07-24T04:58:06.804Z,10.63
2017-07-24T05:00:34.259Z,9.80
2017-07-24T05:03:01.731Z,12.37
2017-07-24T05:05:29.220Z,8.27
2017-07-24T05:07:56.685Z,15.23
2017-07-24T05:10:24.921Z,8.30
2017-07-24T05:12:52.404Z,7.50
2017-07-24T05:15:19.906Z,10.20
2017-07-24T05:17:47.452Z,6.60
2017-07-24T05:20:14.938Z,8.00
2017-07-24T05:22:42.407Z,9.30
2017-07-24T05:25:09.872Z,7.63
2017-07-24T05:27:37.330Z,9.70
2017-07-24T05:30:04.805Z,3.17
2017-07-24T05:32:32.270Z,5.50
2017-07-24T05:35:00.506Z,2.83
2017-07-24T05:37:27.993Z,2.83
2017-07-24T05:39:55.467Z,2.37
2017-07-24T05:42:23.691Z,2.53
2017-07-24T05:44:51.151Z,1.73
2017-07-24T05:47:18.602Z,2.77
2017-07-24T05:49:46.067Z,3.87
2017-07-24T05:52:13.556Z,2.33
2017-07-24T05:54:41.014Z,2.63
2017-07-24T05:57:09.247Z,2.80
2017-07-24T05:59:36.703Z,7.13
2017-07-24T06:02:04.175Z,3.13
2017-07-24T06:04:31.642Z,2.47
2017-07-24T06:06:59.115Z,2.43
2017-07-24T06:09:26.581Z,4.40
2017-07-24T06:11:54.803Z,3.43
2017-07-24T06:14:22.303Z,3.60
2017-07-24T06:16:50.549Z,3.33
2017-07-24T06:19:17.999Z,4.03
2017-07-24T06:21:45.458Z,3.73
2017-07-24T06:24:12.919Z,4.80
2017-07-24T06:26:40.380Z,3.40
2017-07-24T06:29:07.839Z,2.90
2017-07-24T06:31:35.307Z,4.43
2017-07-24T06:34:02.763Z,2.33
2017-07-24T06:36:30.227Z,5.33
2017-07-24T06:38:57.695Z,1.73
2017-07-24T06:41:25.148Z,2.57
2017-07-24T06:43:52.604Z,2.10
2017-07-24T06:46:20.851Z,2.13
2017-07-24T06:48:48.365Z,3.20
2017-07-24T06:51:15.836Z,2.10
2017-07-24T06:53:43.304Z,2.60
2017-07-24T06:56:10.755Z,2.50
2017-07-24T06:58:38.221Z,2.73
2017-07-24T07:01:05.680Z,2.30
2017-07-24T07:03:33.179Z,2.40
2017-07-24T07:06:01.394Z,1.67
2017-07-24T07:08:28.858Z,1.63
2017-07-24T07:10:56.320Z,2.50
2017-07-24T07:13:23.780Z,1.83
2017-07-24T07:15:51.249Z,1.70
2017-07-24T07:18:18.725Z,2.40
2017-07-24T07:20:46.189Z,3.90
2017-07-24T07:23:14.427Z,0.90
2017-07-24T07:25:41.899Z,3.40
2017-07-24T07:28:09.354Z,1.83
2017-07-24T07:30:36.870Z,3.17
2017-07-24T07:33:04.328Z,0.80
2017-07-24T07:35:31.778Z,0.90
2017-07-24T07:37:59.250Z,1.17
2017-07-24T07:40:26.712Z,1.70
2017-07-24T07:42:54.175Z,2.20
2017-07-24T07:45:21.647Z,3.93
2017-07-24T07:47:49.120Z,1.30
2017-07-24T07:50:16.577Z,2.40
2017-07-24T07:52:44.087Z,1.00
2017-07-24T07:55:11.542Z,1.73
2017-07-24T07:57:38.992Z,4.63
2017-07-24T08:00:06.480Z,2.40
2017-07-24T08:02:33.944Z,3.27
2017-07-24T08:05:01.407Z,0.80
2017-07-24T08:07:28.863Z,1.60
2017-07-24T08:09:56.337Z,2.10
2017-07-24T08:12:23.800Z,1.20
2017-07-24T08:14:52.049Z,1.80
2017-07-24T08:17:19.524Z,1.80
2017-07-24T08:19:46.995Z,2.60
2017-07-24T08:22:14.480Z,1.53
2017-07-24T08:24:41.934Z,2.07
2017-07-24T08:27:09.392Z,2.30
2017-07-24T08:29:36.875Z,1.70
2017-07-24T08:32:04.426Z,1.63
2017-07-24T08:34:31.887Z,1.70
2017-07-24T08:36:59.364Z,2.50
2017-07-24T08:39:26.882Z,1.30
2017-07-24T08:41:54.344Z,1.50
2017-07-24T08:44:21.940Z,1.30
2017-07-24T08:46:49.407Z,1.80
2017-07-24T08:49:16.880Z,1.67
2017-07-24T08:51:44.366Z,2.70
2017-07-24T08:54:11.853Z,4.50
2017-07-24T08:56:39.301Z,2.57
2017-07-24T08:59:06.808Z,2.20
2017-07-24T09:01:34.270Z,1.93
2017-07-24T09:04:01.724Z,3.43
2017-07-24T09:06:29.961Z,2.13
2017-07-24T09:08:57.419Z,2.60
2017-07-24T09:11:24.879Z,6.30
2017-07-24T09:13:52.364Z,1.87
2017-07-24T09:16:19.829Z,1.90
2017-07-24T09:18:47.296Z,4.13
2017-07-24T09:21:15.628Z,2.47
2017-07-24T09:23:43.094Z,5.30
2017-07-24T09:26:11.424Z,2.40
2017-07-24T09:28:38.915Z,3.57
2017-07-24T09:31:06.390Z,2.57
2017-07-24T09:33:33.844Z,3.63
2017-07-24T09:36:01.341Z,4.43
2017-07-24T09:38:28.815Z,4.63
2017-07-24T09:40:56.316Z,6.40
2017-07-24T09:43:23.806Z,1.93
2017-07-24T09:45:51.317Z,3.60
2017-07-24T09:48:18.789Z,1.60
2017-07-24T09:50:46.274Z,1.57
2017-07-24T09:53:13.723Z,3.90
2017-07-24T09:55:41.178Z,1.73
2017-07-24T09:58:08.660Z,4.03
2017-07-24T10:00:36.120Z,4.53
2017-07-24T10:03:03.594Z,4.30
2017-07-24T10:05:31.081Z,3.70
2017-07-24T10:07:58.545Z,7.20
2017-07-24T10:10:26.779Z,3.07
2017-07-24T10:12:54.267Z,2.80
2017-07-24T10:15:21.727Z,3.13
2017-07-24T10:17:49.187Z,2.00
2017-07-24T10:20:17.471Z,5.40
2017-07-24T10:22:45.691Z,2.00
2017-07-24T10:25:13.148Z,2.60
2017-07-24T10:27:40.631Z,3.93
2017-07-24T10:30:08.092Z,3.33
2017-07-24T10:32:35.535Z,2.00
2017-07-24T10:35:03.315Z,1.90
2017-07-24T10:37:30.833Z,2.90
2017-07-24T10:39:58.290Z,4.40
2017-07-24T10:42:25.784Z,5.30
2017-07-24T10:44:53.237Z,2.73
2017-07-24T10:47:20.687Z,3.67
2017-07-24T10:49:48.365Z,2.60
2017-07-24T10:52:15.836Z,5.77
2017-07-24T10:54:44.059Z,3.13
2017-07-24T10:57:11.536Z,3.13
2017-07-24T10:59:38.992Z,5.30
2017-07-24T11:02:06.446Z,4.37
2017-07-24T11:04:33.911Z,4.77
2017-07-24T11:07:01.367Z,4.40
2017-07-24T11:09:28.835Z,5.07
2017-07-24T11:11:56.325Z,4.80
2017-07-24T11:14:23.788Z,8.83
2017-07-24T11:16:51.268Z,2.97
2017-07-24T11:19:18.728Z,3.70
2017-07-24T11:21:46.185Z,4.27
2017-07-24T11:24:13.659Z,3.53
2017-07-24T11:26:41.122Z,3.70
2017-07-24T11:29:08.592Z,2.37
2017-07-24T11:31:36.063Z,3.83
2017-07-24T11:34:04.280Z,2.30
2017-07-24T11:36:31.735Z,10.30
2017-07-24T11:38:59.218Z,4.27
2017-07-24T11:41:26.734Z,4.77
2017-07-24T11:43:54.197Z,4.00
2017-07-24T11:46:21.669Z,6.73
2017-07-24T11:48:49.127Z,3.97
2017-07-24T11:51:16.612Z,5.60
2017-07-24T11:53:44.111Z,6.70
2017-07-24T11:56:11.563Z,3.23
2017-07-24T11:58:39.064Z,3.40
2017-07-24T12:01:06.533Z,3.70
2017-07-24T12:03:34.000Z,3.73
2017-07-24T12:06:01.469Z,3.80
2017-07-24T12:08:29.695Z,3.00
2017-07-24T12:10:57.171Z,3.37
2017-07-24T12:13:24.652Z,2.37
2017-07-24T12:15:52.177Z,2.03
2017-07-24T12:18:19.632Z,1.47
2017-07-24T12:20:47.125Z,2.30
2017-07-24T12:23:15.487Z,4.17
2017-07-24T12:25:42.945Z,4.00
2017-07-24T12:28:10.431Z,4.00
2017-07-24T12:30:38.768Z,1.70
2017-07-24T12:33:06.261Z,2.50
2017-07-24T12:35:34.519Z,1.00
2017-07-24T12:38:01.998Z,1.03
2017-07-24T12:40:29.457Z,1.53
2017-07-24T12:42:56.977Z,3.03
2017-07-24T12:45:24.457Z,2.50
2017-07-24T12:47:51.953Z,0.70
2017-07-24T12:50:19.417Z,3.83
2017-07-24T12:52:46.898Z,0.60
2017-07-24T12:55:14.362Z,2.00
2017-07-24T12:57:41.895Z,1.97
2017-07-24T13:00:09.376Z,0.70
2017-07-24T13:02:36.846Z,0.70
2017-07-24T13:05:04.324Z,1.30
2017-07-24T13:07:31.788Z,0.90
2017-07-24T13:09:59.260Z,6.10
2017-07-24T13:12:26.988Z,2.03
2017-07-24T13:14:54.467Z,5.73
2017-07-24T13:17:21.931Z,10.53
2017-07-24T13:19:49.392Z,1.93
2017-07-24T13:22:16.846Z,6.57
2017-07-24T13:24:44.337Z,1.73
2017-07-24T13:27:11.798Z,2.90
2017-07-24T13:29:39.267Z,0.90
2017-07-24T13:32:06.739Z,2.77
2017-07-24T13:34:34.981Z,1.77
2017-07-24T13:37:02.452Z,1.33
2017-07-24T13:39:29.943Z,2.93
2017-07-24T13:41:57.405Z,5.07
2017-07-24T13:44:24.868Z,1.03
2017-07-24T13:46:52.325Z,1.33
2017-07-24T13:49:19.790Z,1.27
2017-07-24T13:51:47.289Z,2.17
2017-07-24T13:54:14.750Z,2.43
2017-07-24T13:56:42.227Z,2.17
2017-07-24T13:59:09.689Z,2.57
2017-07-24T14:01:37.160Z,2.10
2017-07-24T14:04:04.611Z,2.10
2017-07-24T14:06:32.075Z,1.70
2017-07-24T14:08:59.551Z,1.73
2017-07-24T14:11:27.020Z,2.60
2017-07-24T14:13:54.496Z,2.13
2017-07-24T14:16:22.046Z,2.80
2017-07-24T14:18:49.508Z,3.70
2017-07-24T14:21:17.162Z,5.67
2017-07-24T14:23:44.618Z,4.30
2017-07-24T14:26:12.075Z,3.90
2017-07-24T14:28:39.555Z,4.83
2017-07-24T14:31:07.019Z,3.43
2017-07-24T14:33:34.482Z,2.73
2017-07-24T14:36:02.716Z,3.07
2017-07-24T14:38:30.172Z,3.10
2017-07-24T14:40:57.896Z,2.80
2017-07-24T14:43:25.383Z,3.80
2017-07-24T14:45:52.838Z,3.47
2017-07-24T14:48:20.300Z,3.90
2017-07-24T14:50:47.767Z,3.07
2017-07-24T14:53:15.219Z,4.30
2017-07-24T14:55:42.688Z,6.40
2017-07-24T14:58:10.168Z,4.40
2017-07-24T15:00:37.623Z,2.37
2017-07-24T15:03:05.084Z,2.10
2017-07-24T15:05:33.321Z,3.00
2017-07-24T15:08:00.802Z,2.57
2017-07-24T15:10:28.284Z,2.20
2017-07-24T15:12:55.744Z,2.83
2017-07-24T15:15:23.974Z,2.83
2017-07-24T15:17:51.435Z,1.37
2017-07-24T15:20:18.918Z,2.77
2017-07-24T15:22:47.193Z,2.00
2017-07-24T15:25:15.425Z,1.53
2017-07-24T15:27:42.889Z,1.20
2017-07-24T15:30:10.376Z,4.70
2017-07-24T15:32:37.840Z,1.73
2017-07-24T15:35:05.311Z,4.03
2017-07-24T15:37:32.776Z,1.17
2017-07-24T15:40:00.232Z,2.30
2017-07-24T15:42:27.711Z,0.70
2017-07-24T15:44:55.175Z,2.20
2017-07-24T15:47:22.636Z,13.90
2017-07-24T15:49:50.153Z,4.53
2017-07-24T15:52:17.615Z,2.20
2017-07-24T15:54:45.076Z,1.57
2017-07-24T15:57:12.543Z,1.53
2017-07-24T15:59:40.012Z,2.20
2017-07-24T16:02:07.468Z,1.00
2017-07-24T16:04:34.940Z,1.80
2017-07-24T16:07:02.399Z,2.53
2017-07-24T16:09:29.858Z,4.40
2017-07-24T16:11:57.372Z,3.90
2017-07-24T16:14:24.822Z,2.63
2017-07-24T16:16:52.298Z,2.20
2017-07-24T16:19:19.789Z,2.60
2017-07-24T16:21:47.259Z,2.37
2017-07-24T16:24:14.734Z,2.90
2017-07-24T16:26:42.204Z,1.83
2017-07-24T16:29:09.667Z,2.03
2017-07-24T16:31:37.157Z,2.83
2017-07-24T16:34:04.772Z,4.87
2017-07-24T16:36:32.232Z,4.07
2017-07-24T16:38:59.724Z,3.40
2017-07-24T16:41:27.206Z,2.10
2017-07-24T16:43:54.813Z,2.07
2017-07-24T16:46:22.303Z,1.43
2017-07-24T16:48:49.766Z,2.63
2017-07-24T16:51:17.222Z,2.43
2017-07-24T16:53:44.699Z,1.43
2017-07-24T16:56:12.156Z,1.53
2017-07-24T16:58:39.607Z,1.83
2017-07-24T17:01:07.090Z,3.00
2017-07-24T17:03:35.311Z,4.30
2017-07-24T17:06:02.773Z,3.67
2017-07-24T17:08:30.299Z,5.43
2017-07-24T17:10:57.750Z,3.00
2017-07-24T17:13:25.210Z,3.20
2017-07-24T17:15:52.676Z,2.20
2017-07-24T17:18:20.254Z,4.53
2017-07-24T17:20:47.735Z,4.50
2017-07-24T17:23:15.202Z,1.30
2017-07-24T17:25:42.670Z,2.47
2017-07-24T17:28:10.907Z,2.33
2017-07-24T17:30:39.365Z,6.10
2017-07-24T17:33:06.891Z,3.80
2017-07-24T17:35:35.112Z,4.10
2017-07-24T17:38:02.574Z,3.63
2017-07-24T17:40:30.047Z,7.40
2017-07-24T17:42:57.832Z,1.30
2017-07-24T17:45:25.279Z,1.67
2017-07-24T17:47:52.735Z,2.60
2017-07-24T17:50:20.211Z,1.00
2017-07-24T17:52:48.444Z,1.93
2017-07-24T17:55:15.919Z,3.10
2017-07-24T17:57:43.691Z,3.03
2017-07-24T18:00:11.172Z,4.43
2017-07-24T18:02:39.397Z,1.00
2017-07-24T18:05:06.935Z,2.03
2017-07-24T18:07:34.508Z,2.10
2017-07-24T18:10:01.967Z,1.37
2017-07-24T18:12:29.436Z,1.73
2017-07-24T18:14:56.998Z,2.47
2017-07-24T18:17:24.463Z,2.43
2017-07-24T18:19:51.930Z,2.63
2017-07-24T18:22:19.388Z,2.93
2017-07-24T18:24:46.876Z,2.60
2017-07-24T18:27:14.340Z,2.20
2017-07-24T18:29:41.796Z,3.67
2017-07-24T18:32:09.271Z,6.67
2017-07-24T18:34:37.622Z,3.37
2017-07-24T18:37:05.085Z,3.90
2017-07-24T18:39:32.566Z,4.93
2017-07-24T18:42:00.058Z,5.10
2017-07-24T18:44:27.543Z,4.20
2017-07-24T18:46:55.029Z,4.00
2017-07-24T18:49:22.491Z,3.80
2017-07-24T18:51:50.006Z,5.40
2017-07-24T18:54:17.467Z,4.07
2017-07-24T18:56:44.931Z,6.17
2017-07-24T18:59:12.396Z,5.23
2017-07-24T19:01:39.854Z,4.33
2017-07-24T19:04:07.311Z,3.37
2017-07-24T19:06:34.842Z,3.57
2017-07-24T19:09:02.335Z,3.57
2017-07-24T19:11:29.848Z,4.30
2017-07-24T19:13:57.323Z,4.00
2017-07-24T19:16:24.771Z,4.10
2017-07-24T19:18:52.224Z,4.77
2017-07-24T19:21:20.474Z,3.90
2017-07-24T19:23:47.967Z,3.67
2017-07-24T19:26:15.431Z,3.87
2017-07-24T19:28:42.899Z,4.23
2017-07-24T19:31:10.368Z,4.20
2017-07-24T19:33:37.878Z,4.63
2017-07-24T19:36:05.336Z,7.73
2017-07-24T19:38:33.563Z,4.97
2017-07-24T19:41:01.033Z,5.97
2017-07-24T19:43:28.503Z,5.73
2017-07-24T19:45:55.970Z,5.73
2017-07-24T19:48:23.450Z,6.27
2017-07-24T19:50:50.933Z,5.47
2017-07-24T19:53:18.395Z,5.40
2017-07-24T19:55:45.859Z,4.63
2017-07-24T19:58:13.359Z,9.37
2017-07-24T20:00:40.816Z,4.40
2017-07-24T20:03:08.275Z,5.33
2017-07-24T20:05:35.739Z,4.27
2017-07-24T20:08:03.963Z,4.30
2017-07-24T20:10:31.428Z,3.30
2017-07-24T20:12:59.224Z,4.00
2017-07-24T20:15:26.789Z,3.57
2017-07-24T20:17:54.296Z,3.30
2017-07-24T20:20:21.822Z,4.47
2017-07-24T20:22:50.088Z,3.33
2017-07-24T20:25:17.606Z,3.67
2017-07-24T20:27:45.084Z,6.80
2017-07-24T20:30:12.552Z,6.53
2017-07-24T20:32:39.994Z,3.90
2017-07-24T20:35:07.468Z,4.77
2017-07-24T20:37:35.056Z,4.57
2017-07-24T20:40:02.521Z,5.43
2017-07-24T20:42:29.986Z,11.83
2017-07-24T20:44:57.534Z,5.30
2017-07-24T20:47:25.012Z,9.93
2017-07-24T20:49:52.525Z,10.73
2017-07-24T20:52:20.755Z,7.73
2017-07-24T20:54:48.227Z,7.87
2017-07-24T20:57:15.691Z,8.83
2017-07-24T20:59:43.141Z,8.33
2017-07-24T21:02:10.608Z,10.00
2017-07-24T21:04:38.843Z,8.97
2017-07-24T21:07:06.339Z,11.67
2017-07-24T21:09:33.797Z,8.80
2017-07-24T21:12:01.278Z,9.67
2017-07-24T21:14:28.738Z,9.60
2017-07-24T21:16:56.240Z,8.27
2017-07-24T21:19:23.698Z,12.53
2017-07-24T21:21:51.155Z,9.67
2017-07-24T21:24:18.624Z,11.53
2017-07-24T21:26:46.128Z,9.53
2017-07-24T21:29:13.581Z,8.33
2017-07-24T21:31:41.031Z,8.97
2017-07-24T21:34:08.570Z,10.30
2017-07-24T21:36:36.841Z,8.80
2017-07-24T21:39:04.282Z,8.67
2017-07-24T21:41:31.760Z,9.47
2017-07-24T21:43:59.978Z,6.47
2017-07-24T21:46:27.443Z,6.70
2017-07-24T21:48:54.920Z,12.00
2017-07-24T21:51:22.388Z,8.17
2017-07-24T21:53:49.835Z,7.03
2017-07-24T21:56:17.317Z,10.00
2017-07-24T21:58:45.550Z,6.80
2017-07-24T22:01:13.012Z,8.47
2017-07-24T22:03:40.499Z,6.87
2017-07-24T22:06:08.728Z,6.47
2017-07-24T22:08:36.185Z,5.77
2017-07-24T22:11:03.673Z,6.13
2017-07-24T22:13:31.120Z,5.00
2017-07-24T22:15:58.584Z,6.50
2017-07-24T22:18:26.048Z,7.47
2017-07-24T22:20:53.561Z,7.77
2017-07-24T22:23:21.007Z,9.47
2017-07-24T22:25:48.494Z,8.00
2017-07-24T22:28:15.951Z,10.20
2017-07-24T22:30:43.414Z,6.73
2017-07-24T22:33:10.874Z,6.97
2017-07-24T22:35:38.332Z,8.50
2017-07-24T22:38:05.796Z,7.00
2017-07-24T22:40:33.264Z,8.47
2017-07-24T22:43:00.723Z,7.53
2017-07-24T22:45:28.948Z,6.80
2017-07-24T22:47:56.416Z,10.83
2017-07-24T22:50:23.887Z,8.17
2017-07-24T22:52:51.349Z,6.07
2017-07-24T22:55:18.817Z,7.97
2017-07-24T22:57:46.305Z,6.87
2017-07-24T23:00:14.567Z,6.67
2017-07-24T23:02:42.807Z,6.43
2017-07-24T23:05:10.264Z,5.93
2017-07-24T23:07:37.727Z,7.00
2017-07-24T23:10:05.200Z,8.17
2017-07-24T23:12:32.657Z,6.07
2017-07-24T23:15:00.883Z,6.33
2017-07-24T23:17:28.356Z,8.73
2017-07-24T23:19:55.820Z,5.43
2017-07-24T23:22:23.275Z,5.33
2017-07-24T23:24:50.740Z,6.47
2017-07-24T23:27:18.196Z,6.93
2017-07-24T23:29:45.671Z,8.43
2017-07-24T23:32:13.909Z,10.90
2017-07-24T23:34:41.368Z,9.43
2017-07-24T23:37:08.838Z,6.80
2017-07-24T23:39:36.298Z,7.13
2017-07-24T23:42:03.780Z,6.33
2017-07-24T23:44:32.006Z,6.80
2017-07-24T23:46:59.490Z,9.77
2017-07-24T23:49:27.007Z,8.67
2017-07-24T23:51:54.480Z,9.50
2017-07-24T23:54:21.960Z,10.50
2017-07-24T23:56:49.422Z,6.60
2017-07-24T23:59:16.935Z,10.00
